Ashley, Ohio
Current Conditions -  °F | °C
As of 6:01 AM on Friday 19 Dec 2014 (Local Time) from KDLZ Reporting Station
Overcast Overcast  
Wind Chill: 21°   Ceiling: 2300
Heat Index: 27°   Visibility: 7mi
Dew Point: 23°   Wind: 5mph
Humidity: 86%   Direction: 300°WNW
Pressure: 30.23"   Gusts: NA
Location:  40.41°N, 82.96°W
Report Text: KDLZ 191101Z AUTO 30004KT 7SM OVC023 M03/M05 A3023 RMK AO2
Loading
Personal Weather Stations






























Interactive Weather Map New forecast layout! Learn more

10-Day Weather Forecast

Advertisements
Track Severe Weather on mobile